Time;durP1;ratioP1;P1;durP2;ratioP2;P2;SDS_P1;SDS_P2;PMS_P1;PMS_P2;Temp;Humidity;BMP_temperature;BMP_pressure;BME280_temperature;BME280_humidity;BME280_pressure;Samples;Min_cycle;Max_cycle;Signal;HPM_P1;HPM_P2
2023/11/15 00:00:29;;;;;;;;;;;;;;;8.23;100.00;96058.03;5124538;28;19938;-72
2023/11/15 00:02:56;;;;;;;;;;;;;;;8.22;100.00;96059.06;5124639;28;20126;-72
2023/11/15 00:05:22;;;;;;;;;;;;;;;8.20;100.00;96067.09;5124946;28;19944;-72
2023/11/15 00:08:07;;;;;;;;;;;;;;;8.22;100.00;96072.91;5124430;28;20123;-72
2023/11/15 00:10:33;;;;;;;;;;;;;;;8.22;100.00;96088.59;5124399;28;19958;-72
2023/11/15 00:12:58;;;;;;;;;;;;;;;8.22;100.00;96096.44;5123176;28;19942;-72
2023/11/15 00:15:24;;;;;;;;;;;;;;;8.21;100.00;96102.69;5124885;28;19941;-84
2023/11/15 00:17:50;;;;;;;;;;;;;;;8.18;100.00;96099.69;5124265;28;19949;-73
2023/11/15 00:20:16;;;;;;;;;;;;;;;8.16;100.00;96105.09;5124335;28;19938;-73
2023/11/15 00:22:42;;;;;;;;;;;;;;;8.13;100.00;96100.31;5124209;28;19943;-72
2023/11/15 00:25:26;;;;;;;;;;;;;;;8.09;100.00;96102.53;5124468;28;20131;-73
2023/11/15 00:27:54;;;;;;;;;;;;;;;8.06;100.00;96108.19;5124701;28;19939;-73
2023/11/15 00:30:21;;;;;;;;;;;;;;;8.03;100.00;96106.00;5124745;28;19935;-73
2023/11/15 00:32:47;;;;;;;;;;;;;;;8.03;100.00;96113.03;5124151;28;19930;-72
2023/11/15 00:35:13;;;;;;;;;;;;;;;8.01;100.00;96120.28;5125050;28;19949;-79
2023/11/15 00:37:39;;;;;;;;;;;;;;;7.97;100.00;96122.50;5145372;23;19971;-78
2023/11/15 00:40:05;;;;;;;;;;;;;;;7.97;100.00;96119.09;5124979;28;19944;-78
2023/11/15 00:42:31;;;;;;;;;;;;;;;7.98;100.00;96133.72;5122896;28;19945;-78
2023/11/15 00:44:58;;;;;;;;;;;;;;;7.99;100.00;96117.88;5102663;28;19963;-76
2023/11/15 00:47:24;;;;;;;;;;;;;;;7.98;100.00;96131.13;5123870;28;19975;-75
2023/11/15 00:50:08;;;;;;;;;;;;;;;7.98;100.00;96138.94;5107583;28;19969;-77
2023/11/15 00:52:35;;;;;;;;;;;;;;;7.98;100.00;96129.34;5123349;28;19942;-77
2023/11/15 00:55:19;;;;;;;;;;;;;;;7.97;100.00;96143.38;5113620;28;19939;-80
2023/11/15 00:57:45;;;;;;;;;;;;;;;7.96;100.00;96139.19;5123175;28;19964;-83
2023/11/15 01:00:23;;;;;;;;;;;;;;;7.96;100.00;96139.19;5106198;28;19953;-84
2023/11/15 01:02:50;;;;;;;;;;;;;;;7.93;100.00;96155.25;5124010;28;19940;-83
2023/11/15 01:05:18;;;;;;;;;;;;;;;7.88;100.00;96161.09;5123151;28;19945;-84
2023/11/15 01:07:44;;;;;;;;;;;;;;;7.86;100.00;96160.50;5106889;28;19944;-83
2023/11/15 01:10:11;;;;;;;;;;;;;;;7.85;100.00;96168.53;5123374;28;19961;-72
2023/11/15 01:12:37;;;;;;;;;;;;;;;7.83;100.00;96183.59;5107108;28;19952;-76
2023/11/15 01:15:04;;;;;;;;;;;;;;;7.83;100.00;96181.81;5123467;28;19937;-75
2023/11/15 01:17:33;;;;;;;;;;;;;;;7.83;100.00;96179.22;5122683;28;19961;-75
2023/11/15 01:20:00;;;;;;;;;;;;;;;7.82;100.00;96185.41;5105775;28;19950;-75
2023/11/15 01:22:26;;;;;;;;;;;;;;;7.80;100.00;96191.88;5071839;28;20132;-75
2023/11/15 01:24:52;;;;;;;;;;;;;;;7.77;100.00;96197.47;5105699;28;19982;-75
2023/11/15 01:27:18;;;;;;;;;;;;;;;7.75;100.00;96196.88;5106842;28;19934;-75
2023/11/15 01:29:44;;;;;;;;;;;;;;;7.71;100.00;96199.91;5107271;28;20010;-72
2023/11/15 01:32:10;;;;;;;;;;;;;;;7.68;100.00;96197.69;5122576;28;20130;-76
2023/11/15 01:34:36;;;;;;;;;;;;;;;7.66;100.00;96202.31;5105648;28;19939;-75
2023/11/15 01:37:02;;;;;;;;;;;;;;;7.64;100.00;96201.75;5122859;28;19978;-76
2023/11/15 01:39:28;;;;;;;;;;;;;;;7.62;100.00;96200.34;5089337;28;20130;-76
2023/11/15 01:41:56;;;;;;;;;;;;;;;7.60;100.00;96211.00;5107376;28;19943;-76
2023/11/15 01:44:22;;;;;;;;;;;;;;;7.57;100.00;96208.78;5106710;28;19962;-76
2023/11/15 01:46:49;;;;;;;;;;;;;;;7.55;100.00;96210.00;5122313;28;19944;-76
2023/11/15 01:49:18;;;;;;;;;;;;;;;7.55;100.00;96230.88;5106389;28;19942;-78
2023/11/15 01:51:44;;;;;;;;;;;;;;;7.51;100.00;96223.44;5122763;28;20227;-85
2023/11/15 01:54:11;;;;;;;;;;;;;;;7.48;100.00;96218.66;5122213;28;19947;-84
2023/11/15 01:56:40;;;;;;;;;;;;;;;7.49;100.00;96216.81;5106028;28;19966;-85
2023/11/15 01:59:08;;;;;;;;;;;;;;;7.48;100.00;96217.84;5105978;28;19941;-83
2023/11/15 02:01:34;;;;;;;;;;;;;;;7.49;100.00;96216.81;5106693;28;19934;-84
2023/11/15 02:04:01;;;;;;;;;;;;;;;7.49;100.00;96220.22;5106049;28;19936;-83
2023/11/15 02:06:30;;;;;;;;;;;;;;;7.50;100.00;96221.06;5122646;28;19940;-74
2023/11/15 02:08:58;;;;;;;;;;;;;;;7.49;100.00;96217.63;5122707;28;19949;-76
2023/11/15 02:11:24;;;;;;;;;;;;;;;7.49;100.00;96228.06;5121804;28;19944;-77
2023/11/15 02:13:51;;;;;;;;;;;;;;;7.52;100.00;96229.47;5105509;28;19945;-76
2023/11/15 02:16:17;;;;;;;;;;;;;;;7.53;100.00;96233.69;5121596;28;20241;-77
2023/11/15 02:18:43;;;;;;;;;;;;;;;7.53;100.00;96236.28;5106578;28;20007;-76
2023/11/15 02:21:09;;;;;;;;;;;;;;;7.52;100.00;96239.91;5105781;28;19978;-77
2023/11/15 02:23:43;;;;;;;;;;;;;;;7.53;100.00;96237.09;5121556;28;19951;-74
2023/11/15 02:26:08;;;;;;;;;;;;;;;7.57;100.00;96247.13;5106196;28;19944;-76
2023/11/15 02:28:34;;;;;;;;;;;;;;;7.59;100.00;96242.50;5106147;28;20170;-84
2023/11/15 02:31:00;;;;;;;;;;;;;;;7.61;100.00;96246.50;5105005;28;19936;-88
2023/11/15 02:33:26;;;;;;;;;;;;;;;7.62;100.00;96249.91;5106262;28;20055;-88
2023/11/15 02:35:53;;;;;;;;;;;;;;;7.62;100.00;96249.91;5105801;28;19967;-78
2023/11/15 02:38:19;;;;;;;;;;;;;;;7.62;100.00;96255.13;5105303;28;19972;-78
2023/11/15 02:40:45;;;;;;;;;;;;;;;7.64;100.00;96274.00;5106219;28;19941;-78
2023/11/15 02:43:12;;;;;;;;;;;;;;;7.63;100.00;96267.19;5105877;28;20291;-81
2023/11/15 02:45:57;;;;;;;;;;;;;;;7.61;100.00;96269.22;5105611;28;19943;-73
2023/11/15 02:48:23;;;;;;;;;;;;;;;7.61;100.00;96284.88;5105195;28;19950;-73
2023/11/15 02:50:49;;;;;;;;;;;;;;;7.60;100.00;96280.63;5105408;28;19938;-73
2023/11/15 02:53:33;;;;;;;;;;;;;;;7.60;100.00;96286.69;5110940;28;19941;-73
2023/11/15 02:56:18;;;;;;;;;;;;;;;7.60;100.00;96281.47;5105246;28;19939;-74
2023/11/15 02:58:44;;;;;;;;;;;;;;;7.61;100.00;96274.44;5121911;28;19944;-74
2023/11/15 03:01:11;;;;;;;;;;;;;;;7.59;100.00;96285.06;5105577;28;20017;-78
2023/11/15 03:03:37;;;;;;;;;;;;;;;7.58;100.00;96290.47;5105454;28;19957;-74
2023/11/15 03:06:03;;;;;;;;;;;;;;;7.57;100.00;96296.72;5120769;28;19952;-74
2023/11/15 03:08:30;;;;;;;;;;;;;;;7.58;100.00;96300.91;5105229;28;19942;-74
2023/11/15 03:10:57;;;;;;;;;;;;;;;7.57;100.00;96300.13;5120142;28;19945;-74
2023/11/15 03:13:23;;;;;;;;;;;;;;;7.55;100.00;96311.78;5104990;28;20136;-75
2023/11/15 03:15:50;;;;;;;;;;;;;;;7.53;100.00;96317.97;5121267;28;19949;-74
2023/11/15 03:18:16;;;;;;;;;;;;;;;7.53;100.00;96317.97;5103352;28;19964;-74
2023/11/15 03:20:42;;;;;;;;;;;;;;;7.53;100.00;96323.19;5104657;28;19946;-76
2023/11/15 03:23:09;;;;;;;;;;;;;;;7.53;100.00;96323.19;5104089;28;19954;-85
2023/11/15 03:25:39;;;;;;;;;;;;;;;7.54;100.00;96324.03;5105315;28;19944;-87
2023/11/15 03:28:05;;;;;;;;;;;;;;;7.57;100.00;96326.22;5103376;28;19944;-88
2023/11/15 03:30:31;;;;;;;;;;;;;;;7.59;100.00;96337.25;5104094;28;19964;-86
2023/11/15 03:32:57;;;;;;;;;;;;;;;7.58;100.00;96330.44;5104471;28;19945;-86
2023/11/15 03:35:23;;;;;;;;;;;;;;;7.56;100.00;96337.66;5104432;28;20010;-87
2023/11/15 03:37:49;;;;;;;;;;;;;;;7.56;100.00;96334.25;5104331;28;20226;-79
2023/11/15 03:40:19;;;;;;;;;;;;;;;7.53;100.00;96338.06;5120237;28;20308;-86
2023/11/15 03:42:48;;;;;;;;;;;;;;;7.51;100.00;96340.06;5104218;28;20251;-76
2023/11/15 03:45:14;;;;;;;;;;;;;;;7.49;100.00;96350.69;5104223;28;19961;-76
2023/11/15 03:47:40;;;;;;;;;;;;;;;7.48;100.00;96337.88;5103029;28;19947;-76
2023/11/15 03:50:07;;;;;;;;;;;;;;;7.45;100.00;96344.25;5104216;28;19939;-76
2023/11/15 03:52:33;;;;;;;;;;;;;;;7.44;100.00;96345.28;5104932;28;19942;-76
2023/11/15 03:54:59;;;;;;;;;;;;;;;7.43;100.00;96359.34;5104166;28;19944;-76
2023/11/15 03:57:26;;;;;;;;;;;;;;;7.43;100.00;96361.13;5104617;28;19960;-72
2023/11/15 03:59:53;;;;;;;;;;;;;;;7.43;100.00;96368.97;5119973;28;20110;-80
2023/11/15 04:02:19;;;;;;;;;;;;;;;7.44;100.00;96367.97;5119888;28;20135;-79
2023/11/15 04:04:45;;;;;;;;;;;;;;;7.45;100.00;96370.34;5104791;28;20007;-79
2023/11/15 04:07:11;;;;;;;;;;;;;;;7.43;100.00;96375.00;5104578;28;20207;-80
2023/11/15 04:09:38;;;;;;;;;;;;;;;7.43;100.00;96375.00;5102864;28;19939;-79
2023/11/15 04:12:04;;;;;;;;;;;;;;;7.44;100.00;96373.97;5104514;28;20118;-79
2023/11/15 04:14:30;;;;;;;;;;;;;;;7.45;100.00;96387.81;5119818;28;19950;-72
2023/11/15 04:16:57;;;;;;;;;;;;;;;7.45;100.00;96380.78;5120236;28;19952;-79
2023/11/15 04:19:41;;;;;;;;;;;;;;;7.47;100.00;96388.44;5103896;28;19951;-76
2023/11/15 04:22:07;;;;;;;;;;;;;;;7.48;100.00;96379.63;5124158;28;20120;-76
2023/11/15 04:24:33;;;;;;;;;;;;;;;7.49;100.00;96391.66;5123900;28;20163;-76
2023/11/15 04:27:17;;;;;;;;;;;;;;;7.53;100.00;96400.69;5114158;28;19945;-76
2023/11/15 04:29:43;;;;;;;;;;;;;;;7.53;100.00;96398.88;5108398;28;19943;-76
2023/11/15 04:32:09;;;;;;;;;;;;;;;7.55;100.00;96403.09;5107376;28;20267;-76
2023/11/15 04:34:34;;;;;;;;;;;;;;;7.56;100.00;96397.69;5123719;28;20248;-81
2023/11/15 04:37:24;;;;;;;;;;;;;;;7.56;100.00;96405.53;5107701;28;19964;-73
2023/11/15 04:39:49;;;;;;;;;;;;;;;7.56;100.00;96410.75;5107441;28;19942;-74
2023/11/15 04:42:18;;;;;;;;;;;;;;;7.58;100.00;96413.13;5106427;28;19943;-74
2023/11/15 04:44:45;;;;;;;;;;;;;;;7.58;100.00;96413.13;5123385;28;20165;-73
2023/11/15 04:47:11;;;;;;;;;;;;;;;7.58;100.00;96419.19;5107301;28;20020;-74
2023/11/15 04:49:37;;;;;;;;;;;;;;;7.57;100.00;96420.16;5105803;28;19955;-74
2023/11/15 04:52:03;;;;;;;;;;;;;;;7.58;100.00;96420.97;5088992;28;19939;-77
2023/11/15 04:54:29;;;;;;;;;;;;;;;7.59;100.00;96427.78;5106322;28;19950;-83
2023/11/15 04:56:54;;;;;;;;;;;;;;;7.59;100.00;96430.41;5106339;28;19962;-82
2023/11/15 04:59:20;;;;;;;;;;;;;;;7.58;100.00;96434.00;5106149;28;20160;-84
2023/11/15 05:01:46;;;;;;;;;;;;;;;7.58;100.00;96434.00;5106365;28;20216;-84
2023/11/15 05:04:15;;;;;;;;;;;;;;;7.57;100.00;96446.25;5106278;28;19935;-84
2023/11/15 05:06:41;;;;;;;;;;;;;;;7.55;100.00;96443.03;5105485;28;19943;-84
2023/11/15 05:09:08;;;;;;;;;;;;;;;7.55;100.00;96437.81;5071708;28;19952;-79
2023/11/15 05:11:34;;;;;;;;;;;;;;;7.54;100.00;96436.22;5106108;28;19940;-79
2023/11/15 05:14:00;;;;;;;;;;;;;;;7.49;100.00;96436.81;5106202;28;19939;-79
2023/11/15 05:16:44;;;;;;;;;;;;;;;7.46;100.00;96429.38;5105221;28;19935;-78
2023/11/15 05:19:10;;;;;;;;;;;;;;;7.43;100.00;96439.41;5105300;28;19944;-76
2023/11/15 05:21:37;;;;;;;;;;;;;;;7.39;100.00;96432.97;5121314;28;19966;-76
2023/11/15 05:24:03;;;;;;;;;;;;;;;7.34;100.00;96430.97;5122769;28;19938;-76
2023/11/15 05:26:29;;;;;;;;;;;;;;;7.31;100.00;96434.78;5122847;28;20123;-77
2023/11/15 05:28:54;;;;;;;;;;;;;;;7.29;100.00;96435.97;5123435;28;19944;-87
2023/11/15 05:31:20;;;;;;;;;;;;;;;7.26;100.00;96442.38;5122548;28;19982;-86
2023/11/15 05:33:46;;;;;;;;;;;;;;;7.26;100.00;96452.81;5122326;28;20093;-86
2023/11/15 05:36:12;;;;;;;;;;;;;;;7.26;100.00;96449.41;5106876;28;19953;-86
2023/11/15 05:38:38;;;;;;;;;;;;;;;7.24;100.00;96460.03;5122216;28;19996;-85
2023/11/15 05:41:05;;;;;;;;;;;;;;;7.22;100.00;96463.81;5106266;28;19939;-87
2023/11/15 05:43:31;;;;;;;;;;;;;;;7.20;100.00;96466.66;5122312;28;19955;-84
2023/11/15 05:45:57;;;;;;;;;;;;;;;7.21;100.00;96483.09;5122296;28;19935;-83
2023/11/15 05:48:23;;;;;;;;;;;;;;;7.22;100.00;96488.09;5122350;28;19937;-87
2023/11/15 05:50:49;;;;;;;;;;;;;;;7.25;100.00;96479.91;5107231;28;20115;-87
2023/11/15 05:53:16;;;;;;;;;;;;;;;7.28;100.00;96481.31;5122203;28;20135;-87
2023/11/15 05:55:42;;;;;;;;;;;;;;;7.30;100.00;96487.13;5105840;28;19947;-84
2023/11/15 05:58:09;;;;;;;;;;;;;;;7.32;100.00;96495.56;5122007;28;19960;-80
2023/11/15 06:00:35;;;;;;;;;;;;;;;7.31;100.00;96486.16;5106242;28;19947;-79
2023/11/15 06:03:01;;;;;;;;;;;;;;;7.31;100.00;96486.94;5106147;28;19985;-80
2023/11/15 06:05:29;;;;;;;;;;;;;;;7.32;100.00;96488.53;5121984;28;19942;-72
2023/11/15 06:07:55;;;;;;;;;;;;;;;7.32;100.00;96491.16;5106036;28;20224;-80
2023/11/15 06:10:20;;;;;;;;;;;;;;;7.34;100.00;96501.41;5104691;28;19951;-80
2023/11/15 06:12:46;;;;;;;;;;;;;;;7.36;100.00;96498.59;5122554;28;19942;-79
2023/11/15 06:15:12;;;;;;;;;;;;;;;7.37;100.00;96502.81;5121767;28;19981;-79
2023/11/15 06:17:41;;;;;;;;;;;;;;;7.38;100.00;96505.22;5106320;28;19957;-79
2023/11/15 06:20:09;;;;;;;;;;;;;;;7.40;100.00;96507.66;5121652;28;19939;-79
2023/11/15 06:22:38;;;;;;;;;;;;;;;7.40;100.00;96511.06;5106188;28;19957;-79
2023/11/15 06:25:06;;;;;;;;;;;;;;;7.40;100.00;96508.44;5105224;28;19989;-78
2023/11/15 06:27:33;;;;;;;;;;;;;;;7.40;100.00;96511.06;5106174;28;20121;-79
2023/11/15 06:29:59;;;;;;;;;;;;;;;7.40;100.00;96513.66;5121457;28;19950;-83
2023/11/15 06:32:25;;;;;;;;;;;;;;;7.41;100.00;96530.13;5105553;28;19943;-83
2023/11/15 06:34:52;;;;;;;;;;;;;;;7.41;100.00;96522.28;5104623;28;19944;-82
2023/11/15 06:37:18;;;;;;;;;;;;;;;7.40;100.00;96511.06;5121094;28;19977;-80
2023/11/15 06:39:44;;;;;;;;;;;;;;;7.41;100.00;96525.72;5104341;28;19948;-80
2023/11/15 06:42:13;;;;;;;;;;;;;;;7.40;100.00;96521.50;5105446;28;19944;-74
2023/11/15 06:44:57;;;;;;;;;;;;;;;7.41;100.00;96528.31;5105207;28;19957;-74
2023/11/15 06:47:25;;;;;;;;;;;;;;;7.42;100.00;96535.16;5121209;28;19940;-73
2023/11/15 06:50:10;;;;;;;;;;;;;;;7.43;100.00;96543.75;5125610;28;20126;-73
2023/11/15 06:52:37;;;;;;;;;;;;;;;7.41;100.00;96546.59;5121831;28;19944;-74
2023/11/15 06:55:09;;;;;;;;;;;;;;;7.39;100.00;96547.75;5121652;28;19967;-74
2023/11/15 06:57:38;;;;;;;;;;;;;;;7.35;100.00;96549.97;5103515;28;20466;-73
2023/11/15 07:00:05;;;;;;;;;;;;;;;7.32;100.00;96547.75;5105033;28;19944;-73
2023/11/15 07:02:31;;;;;;;;;;;;;;;7.30;100.00;96549.75;5121613;28;19942;-75
2023/11/15 07:04:57;;;;;;;;;;;;;;;7.30;100.00;96550.53;5121426;28;20265;-75
2023/11/15 07:07:23;;;;;;;;;;;;;;;7.30;100.00;96547.94;5103599;28;20143;-75
2023/11/15 07:09:49;;;;;;;;;;;;;;;7.30;100.00;96547.94;5105625;28;20208;-75
2023/11/15 07:12:16;;;;;;;;;;;;;;;7.31;100.00;96556.59;5105574;28;19993;-76
2023/11/15 07:14:44;;;;;;;;;;;;;;;7.34;100.00;96558.00;5104768;28;19936;-75
2023/11/15 07:17:12;;;;;;;;;;;;;;;7.37;100.00;96562.81;5105445;28;19940;-75
2023/11/15 07:19:38;;;;;;;;;;;;;;;7.39;100.00;96559.03;5120476;28;19948;-75
2023/11/15 07:22:04;;;;;;;;;;;;;;;7.43;100.00;96565.47;5104385;28;19947;-78
2023/11/15 07:24:30;;;;;;;;;;;;;;;7.45;100.00;96558.22;5105072;28;20162;-78
2023/11/15 07:26:56;;;;;;;;;;;;;;;7.47;100.00;96563.25;5105294;28;20156;-78
2023/11/15 07:29:22;;;;;;;;;;;;;;;7.48;100.00;96565.69;5086531;28;19950;-78
2023/11/15 07:31:52;;;;;;;;;;;;;;;7.48;100.00;96549.22;5120988;28;19943;-78
2023/11/15 07:34:19;;;;;;;;;;;;;;;7.47;100.00;96569.28;5120702;28;19940;-78
2023/11/15 07:36:45;;;;;;;;;;;;;;;7.49;100.00;96580.31;5103051;28;19985;-77
2023/11/15 07:39:13;;;;;;;;;;;;;;;7.56;100.00;96584.75;5120467;28;20033;-80
2023/11/15 07:41:39;;;;;;;;;;;;;;;7.68;100.00;96593.66;5104853;28;19940;-85
2023/11/15 07:44:25;;;;;;;;;;;;;;;7.94;100.00;96600.78;5121286;28;20149;-85
2023/11/15 07:46:54;;;;;;;;;;;;;;;8.06;100.00;96606.19;5120116;28;19943;-82
2023/11/15 07:49:23;;;;;;;;;;;;;;;8.12;100.00;96611.44;5104681;28;19938;-84
2023/11/15 07:51:49;;;;;;;;;;;;;;;8.15;100.00;96605.03;5103149;28;19942;-87
2023/11/15 07:54:16;;;;;;;;;;;;;;;8.13;100.00;96613.06;5104655;28;20109;-89
2023/11/15 07:56:42;;;;;;;;;;;;;;;8.14;100.00;96622.50;5119370;28;19944;-81
2023/11/15 07:59:08;;;;;;;;;;;;;;;8.16;100.00;96616.28;5119927;28;19958;-86
2023/11/15 08:01:35;;;;;;;;;;;;;;;8.19;100.00;96615.88;5104609;28;20098;-88
2023/11/15 08:04:01;;;;;;;;;;;;;;;8.27;100.00;96620.91;5119972;28;19938;-87
2023/11/15 08:06:27;;;;;;;;;;;;;;;8.30;100.00;96626.56;5085999;28;20008;-88
2023/11/15 08:08:54;;;;;;;;;;;;;;;8.31;100.00;96625.53;5102875;28;20154;-87
2023/11/15 08:11:24;;;;;;;;;;;;;;;8.33;100.00;96630.56;5120498;28;19943;-87
2023/11/15 08:13:50;;;;;;;;;;;;;;;8.32;100.00;96628.97;5103925;28;19945;-76
2023/11/15 08:16:17;;;;;;;;;;;;;;;8.30;100.00;96631.78;5103593;28;19955;-78
2023/11/15 08:18:43;;;;;;;;;;;;;;;8.28;100.00;96633.00;5103282;28;19966;-76
2023/11/15 08:21:28;;;;;;;;;;;;;;;8.27;100.00;96632.19;5124497;28;19954;-76
2023/11/15 08:23:54;;;;;;;;;;;;;;;8.28;100.00;96633.78;5103808;28;20133;-76
2023/11/15 08:26:21;;;;;;;;;;;;;;;8.29;100.00;96632.78;5120312;28;19944;-76
2023/11/15 08:28:47;;;;;;;;;;;;;;;8.37;100.00;96630.97;5120435;28;19939;-76
2023/11/15 08:31:14;;;;;;;;;;;;;;;8.43;100.00;96632.84;5085897;28;19953;-76
2023/11/15 08:33:58;;;;;;;;;;;;;;;8.46;100.00;96640.25;5104082;28;19938;-74
2023/11/15 08:36:24;;;;;;;;;;;;;;;8.50;100.00;96652.75;5118707;28;19940;-83
2023/11/15 08:38:50;;;;;;;;;;;;;;;8.54;100.00;96660.97;5119468;28;19969;-82
2023/11/15 08:41:19;;;;;;;;;;;;;;;8.51;100.00;96656.16;5119595;28;19948;-83
2023/11/15 08:43:45;;;;;;;;;;;;;;;8.48;100.00;96648.72;5103336;28;19955;-82
2023/11/15 08:46:11;;;;;;;;;;;;;;;8.42;100.00;96652.94;5120151;28;19938;-82
2023/11/15 08:48:37;;;;;;;;;;;;;;;8.40;100.00;96657.53;5120181;28;20005;-82
2023/11/15 08:51:23;;;;;;;;;;;;;;;8.40;100.00;96660.16;5103914;28;19942;-73
2023/11/15 08:53:49;;;;;;;;;;;;;;;8.44;100.00;96664.00;5065480;28;19947;-73
2023/11/15 08:56:16;;;;;;;;;;;;;;;8.46;100.00;96666.41;5082152;28;19943;-73
2023/11/15 08:58:42;;;;;;;;;;;;;;;8.48;100.00;96673.06;5081695;28;19956;-73
2023/11/15 09:01:09;;;;;;;;;;;;;;;8.50;100.00;96675.44;5048719;28;19945;-72
2023/11/15 09:03:38;;;;;;;;;;;;;;;8.49;100.00;96679.09;5064793;28;19946;-73
2023/11/15 09:06:05;;;;;;;;;;;;;;;8.50;100.00;96678.91;5082161;28;19950;-73
2023/11/15 09:08:31;;;;;;;;;;;;;;;8.52;100.00;96679.50;5085226;28;19938;-88
2023/11/15 09:10:57;;;;;;;;;;;;;;;8.56;100.00;96681.72;5084999;28;19943;-78
2023/11/15 09:13:23;;;;;;;;;;;;;;;8.59;100.00;96683.91;5069054;28;20253;-76
2023/11/15 09:15:51;;;;;;;;;;;;;;;8.61;100.00;96684.50;5084878;28;19950;-76
2023/11/15 09:18:23;;;;;;;;;;;;;;;8.72;100.00;96676.09;5068103;28;19964;-76
2023/11/15 09:20:49;;;;;;;;;;;;;;;8.83;100.00;96674.69;5085419;28;19957;-76
2023/11/15 09:23:18;;;;;;;;;;;;;;;8.92;100.00;96670.88;5084756;28;19951;-75
2023/11/15 09:25:46;;;;;;;;;;;;;;;9.01;100.00;96674.06;5101241;28;19945;-77
2023/11/15 09:28:18;;;;;;;;;;;;;;;9.14;100.00;96669.66;5106507;28;19946;-78
2023/11/15 09:30:44;;;;;;;;;;;;;;;9.30;100.00;96678.06;5123367;28;19945;-73
2023/11/15 09:33:13;;;;;;;;;;;;;;;9.38;100.00;96677.88;5105559;28;19958;-72
2023/11/15 09:35:58;;;;;;;;;;;;;;;9.43;100.00;96685.09;5107686;28;19938;-73
2023/11/15 09:38:24;;;;;;;;;;;;;;;9.48;100.00;96685.31;5088362;28;19972;-73
2023/11/15 09:40:49;;;;;;;;;;;;;;;9.60;100.00;96675.81;5122448;28;19950;-73
2023/11/15 09:43:19;;;;;;;;;;;;;;;9.82;100.00;96672.91;5123085;28;19943;-73
2023/11/15 09:45:46;;;;;;;;;;;;;;;10.10;100.00;96672.59;5088480;28;19942;-81
2023/11/15 09:48:12;;;;;;;;;;;;;;;10.33;100.00;96683.41;5123364;28;19948;-78
2023/11/15 09:50:41;;;;;;;;;;;;;;;10.56;100.00;96682.88;5123015;28;19966;-74
2023/11/15 09:53:07;;;;;;;;;;;;;;;10.78;100.00;96693.00;5105831;28;20128;-74
2023/11/15 09:55:33;;;;;;;;;;;;;;;10.87;100.00;96696.97;5107069;28;19941;-75
2023/11/15 09:57:59;;;;;;;;;;;;;;;10.92;100.00;96697.16;5122046;28;19967;-74
2023/11/15 10:00:29;;;;;;;;;;;;;;;10.88;100.00;96693.34;5122861;28;19948;-74
2023/11/15 10:02:55;;;;;;;;;;;;;;;10.71;100.00;96695.69;5105843;28;19942;-74
2023/11/15 10:05:24;;;;;;;;;;;;;;;10.54;100.00;96689.31;5122768;28;19963;-78
2023/11/15 10:07:54;;;;;;;;;;;;;;;10.62;100.00;96707.44;5122500;28;20213;-75
2023/11/15 10:10:21;;;;;;;;;;;;;;;10.80;100.00;96705.94;5121864;28;20219;-75
2023/11/15 10:12:48;;;;;;;;;;;;;;;10.99;100.00;96712.03;5104753;28;19949;-75
2023/11/15 10:15:14;;;;;;;;;;;;;;;11.15;100.00;96693.16;5106773;28;20176;-74
2023/11/15 10:17:42;;;;;;;;;;;;;;;11.16;100.00;96713.09;5122317;28;20048;-74
2023/11/15 10:20:22;;;;;;;;;;;;;;;11.16;100.00;96706.03;5104311;28;19946;-74
2023/11/15 10:22:50;;;;;;;;;;;;;;;11.26;100.00;96702.13;5122696;28;19951;-86
2023/11/15 10:25:18;;;;;;;;;;;;;;;11.25;100.00;96703.94;5087663;28;19946;-82
2023/11/15 10:27:44;;;;;;;;;;;;;;;11.27;100.00;96694.03;5122026;28;19944;-86
2023/11/15 10:30:13;;;;;;;;;;;;;;;11.34;100.00;96717.63;5121624;28;20247;-86
2023/11/15 10:32:40;;;;;;;;;;;;;;;11.49;100.00;96701.53;5121401;28;19946;-85
2023/11/15 10:35:08;;;;;;;;;;;;;;;11.65;100.00;96700.94;5105839;28;19946;-85
2023/11/15 10:37:46;;;;;;;;;;;;;;;11.66;100.00;96696.50;5104189;28;19976;-87
2023/11/15 10:40:12;;;;;;;;;;;;;;;11.68;100.00;96683.94;5105952;28;19944;-86
2023/11/15 10:42:39;;;;;;;;;;;;;;;11.51;100.00;96683.72;5121306;28;20001;-77
2023/11/15 10:45:08;;;;;;;;;;;;;;;11.45;100.00;96705.59;5121121;28;19954;-75
2023/11/15 10:47:35;;;;;;;;;;;;;;;11.38;100.00;96688.06;5121154;28;19954;-76
2023/11/15 10:50:05;;;;;;;;;;;;;;;11.49;100.00;96689.19;5121717;28;20188;-74
2023/11/15 10:52:32;;;;;;;;;;;;;;;11.45;100.00;96674.88;5105949;28;20223;-75
2023/11/15 10:54:59;;;;;;;;;;;;;;;11.51;100.00;96702.09;5066919;28;19950;-74
2023/11/15 10:57:27;;;;;;;;;;;;;;;11.63;100.00;96668.03;5083325;28;19942;-75
2023/11/15 10:59:53;;;;;;;;;;;;;;;11.58;100.00;96681.81;5083038;28;19975;-77
2023/11/15 11:02:20;;;;;;;;;;;;;;;11.44;100.00;96683.75;5082941;28;20004;-83
2023/11/15 11:04:47;;;;;;;;;;;;;;;11.39;100.00;96694.13;5066222;28;19946;-83
2023/11/15 11:07:16;;;;;;;;;;;;;;;11.41;100.00;96684.22;5066928;28;19942;-83
2023/11/15 11:09:52;;;;;;;;;;;;;;;11.51;100.00;96652.19;5066094;28;19946;-83
2023/11/15 11:12:22;;;;;;;;;;;;;;;11.76;100.00;96668.69;5050245;28;19951;-83
2023/11/15 11:15:12;;;;;;;;;;;;;;;11.95;100.00;96648.47;5065858;28;19939;-74
2023/11/15 11:17:42;;;;;;;;;;;;;;;12.18;100.00;96636.47;5065748;28;19943;-76
2023/11/15 11:20:24;;;;;;;;;;;;;;;12.26;100.00;96601.16;5049784;28;19964;-79
2023/11/15 11:23:10;;;;;;;;;;;;;;;12.33;100.00;96626.34;5049991;28;19951;-88
2023/11/15 11:25:39;;;;;;;;;;;;;;;12.37;100.00;96640.66;5077482;28;19946;-89
2023/11/15 11:28:05;;;;;;;;;;;;;;;12.46;100.00;96629.81;5120442;28;19940;-88
2023/11/15 11:30:31;;;;;;;;;;;;;;;12.37;100.00;96582.78;5120316;28;20119;-88
2023/11/15 11:33:15;;;;;;;;;;;;;;;12.36;100.00;96588.25;5086511;28;19947;-87
2023/11/15 11:35:42;;;;;;;;;;;;;;;12.31;100.00;96575.78;5082974;28;19950;-82
2023/11/15 11:38:12;;;;;;;;;;;;;;;12.33;100.00;96622.91;5065476;28;20261;-77
2023/11/15 11:40:39;;;;;;;;;;;;;;;12.47;100.00;96634.03;5066514;28;20127;-90
2023/11/15 11:43:15;;;;;;;;;;;;;;;12.45;100.00;96617.66;5067111;28;20014;-94
2023/11/15 11:45:44;;;;;;;;;;;;;;;12.34;100.00;96592.94;5067355;28;19944;-90
2023/11/15 11:48:20;;;;;;;;;;;;;;;12.08;100.00;96605.44;5082434;28;19943;-89
2023/11/15 11:50:55;;;;;;;;;;;;;;;12.06;100.00;96644.31;5083033;28;19943;-87
2023/11/15 11:53:21;;;;;;;;;;;;;;;12.02;100.00;96631.84;5083176;28;19939;-88
2023/11/15 11:55:57;;;;;;;;;;;;;;;12.04;100.00;96641.09;5066341;28;19943;-82
2023/11/15 11:58:25;;;;;;;;;;;;;;;11.94;100.00;96609.28;5066465;28;19963;-88
2023/11/15 12:00:58;;;;;;;;;;;;;;;11.89;100.00;96633.59;5065441;28;19947;-88
2023/11/15 12:03:24;;;;;;;;;;;;;;;11.87;100.00;96627.72;5066198;28;19946;-88
2023/11/15 12:05:55;;;;;;;;;;;;;;;11.91;100.00;96607.91;5068471;28;19949;-87
2023/11/15 12:08:22;;;;;;;;;;;;;;;11.87;100.00;96617.22;5103760;28;19939;-88
2023/11/15 12:10:48;;;;;;;;;;;;;;;11.84;100.00;96611.59;5120717;28;19939;-88
2023/11/15 12:13:34;;;;;;;;;;;;;;;11.76;100.00;96624.03;5086159;28;20131;-92
2023/11/15 12:16:23;;;;;;;;;;;;;;;11.57;100.00;96619.81;5065891;28;20042;-73
2023/11/15 12:19:03;;;;;;;;;;;;;;;11.49;100.00;96627.97;5048583;28;19959;-73
2023/11/15 12:21:31;;;;;;;;;;;;;;;11.40;100.00;96624.03;5066036;28;19937;-72
2023/11/15 12:23:57;;;;;;;;;;;;;;;11.37;100.00;96654.16;5082750;28;20107;-73
2023/11/15 12:26:23;;;;;;;;;;;;;;;11.32;100.00;96661.88;5048758;28;19950;-73
2023/11/15 12:28:49;;;;;;;;;;;;;;;11.18;100.00;96672.50;5082117;28;19940;-73
2023/11/15 12:31:15;;;;;;;;;;;;;;;10.99;100.00;96638.56;5065444;28;19948;-82
2023/11/15 12:33:43;;;;;;;;;;;;;;;11.00;100.00;96648.03;5082624;28;19942;-79
2023/11/15 12:36:19;;;;;;;;;;;;;;;11.09;100.00;96647.56;5068192;28;19967;-89
2023/11/15 12:38:54;;;;;;;;;;;;;;;11.16;100.00;96631.75;5065635;28;19981;-88
2023/11/15 12:41:20;;;;;;;;;;;;;;;11.17;100.00;96643.81;5050187;28;19948;-88
2023/11/15 12:43:58;;;;;;;;;;;;;;;11.14;100.00;96642.44;5053529;28;20198;-88
2023/11/15 12:46:24;;;;;;;;;;;;;;;11.13;100.00;96640.84;5062767;28;19942;-85
2023/11/15 12:48:50;;;;;;;;;;;;;;;11.18;100.00;96627.06;5109177;28;20222;-84
2023/11/15 12:51:18;;;;;;;;;;;;;;;11.22;100.00;96635.31;5109412;28;19986;-76